createdAt,value
2023-07-18T00:00:54.788Z,22.5
2023-07-18T00:01:55.160Z,22.5
2023-07-18T00:02:55.464Z,22.5
2023-07-18T00:03:55.751Z,22.5
2023-07-18T00:04:56.006Z,22.5
2023-07-18T00:05:56.194Z,22.5
2023-07-18T00:06:56.362Z,22.5
2023-07-18T00:07:56.535Z,22.5
2023-07-18T00:08:56.701Z,22.1
2023-07-18T00:09:59.430Z,22.1
2023-07-18T00:10:59.627Z,22.1
2023-07-18T00:11:59.792Z,22.1
2023-07-18T00:12:59.980Z,22.1
2023-07-18T00:14:00.160Z,22.1
2023-07-18T00:15:00.371Z,22.1
2023-07-18T00:16:00.582Z,22.1
2023-07-18T00:17:00.784Z,22.1
2023-07-18T00:18:01.000Z,22.1
2023-07-18T00:19:01.268Z,22.1
2023-07-18T00:20:01.446Z,22.1
2023-07-18T00:21:01.821Z,22.1
2023-07-18T00:22:02.134Z,22.1
2023-07-18T00:23:02.462Z,22.1
2023-07-18T00:24:02.763Z,22.1
2023-07-18T00:25:03.030Z,22.1
2023-07-18T00:26:03.266Z,22.1
2023-07-18T00:27:03.417Z,22.1
2023-07-18T00:28:03.584Z,22.1
2023-07-18T00:29:03.759Z,22.1
2023-07-18T00:30:03.956Z,22.1
2023-07-18T00:31:04.140Z,22.1
2023-07-18T00:32:04.423Z,22.1
2023-07-18T00:33:04.887Z,22.1
2023-07-18T00:34:05.167Z,22.1
2023-07-18T00:35:05.538Z,22.1
2023-07-18T00:36:05.716Z,22.1
2023-07-18T00:37:05.927Z,22.1
2023-07-18T00:38:06.174Z,22.1
2023-07-18T00:39:06.394Z,22.1
2023-07-18T00:40:06.639Z,22.1
2023-07-18T00:41:06.832Z,22.1
2023-07-18T00:42:07.042Z,22.1
2023-07-18T00:43:07.212Z,22.1
2023-07-18T00:44:07.369Z,22.1
2023-07-18T00:45:07.562Z,22.1
2023-07-18T00:46:07.774Z,22.1
2023-07-18T00:47:08.061Z,22.1
2023-07-18T00:48:08.312Z,22.1
2023-07-18T00:49:08.639Z,22.1
2023-07-18T00:50:08.854Z,22.1
2023-07-18T00:51:09.018Z,22.1
2023-07-18T00:52:09.175Z,22.1
2023-07-18T00:53:09.356Z,22.1
2023-07-18T00:54:10.784Z,22.1
2023-07-18T00:55:11.004Z,22.1
2023-07-18T00:56:11.251Z,22.1
2023-07-18T00:57:11.428Z,22.1
2023-07-18T00:58:11.612Z,22.1
2023-07-18T00:59:11.844Z,22.1
2023-07-18T01:00:12.015Z,22.1
2023-07-18T01:01:12.319Z,22.1
2023-07-18T01:02:12.632Z,22.1
2023-07-18T01:03:13.024Z,22.1
2023-07-18T01:04:13.308Z,22.1
2023-07-18T01:05:13.507Z,22.1
2023-07-18T01:06:13.685Z,22.1
2023-07-18T01:07:14.002Z,22.1
2023-07-18T01:08:14.301Z,22.1
2023-07-18T01:09:14.464Z,21.5
2023-07-18T01:10:14.641Z,21.5
2023-07-18T01:11:14.809Z,21.5
2023-07-18T01:12:14.981Z,21.5
2023-07-18T01:13:15.183Z,21.5
2023-07-18T01:14:15.402Z,21.5
2023-07-18T01:15:15.587Z,21.5
2023-07-18T01:16:15.844Z,21.5
2023-07-18T01:17:16.076Z,21.5
2023-07-18T01:18:16.233Z,21.5
2023-07-18T01:19:16.397Z,21.5
2023-07-18T01:20:16.568Z,21.5
2023-07-18T01:21:16.962Z,21.5
2023-07-18T01:22:17.723Z,21.5
2023-07-18T01:23:18.047Z,21.5
2023-07-18T01:24:18.372Z,21.5
2023-07-18T01:25:18.548Z,21.5
2023-07-18T01:26:18.720Z,21.5
2023-07-18T01:27:18.902Z,21.5
2023-07-18T01:28:19.059Z,21.5
2023-07-18T01:29:19.236Z,21.5
2023-07-18T01:30:19.398Z,21.5
2023-07-18T01:31:20.302Z,21.5
2023-07-18T01:32:21.212Z,21.5
2023-07-18T01:33:21.416Z,21.5
2023-07-18T01:34:21.581Z,21.5
2023-07-18T01:35:21.746Z,21.5
2023-07-18T01:36:21.903Z,21.5
2023-07-18T01:37:22.067Z,21.5
2023-07-18T01:38:22.250Z,21.5
2023-07-18T01:39:22.429Z,21.5
2023-07-18T01:40:22.597Z,21.5
2023-07-18T01:41:22.775Z,21.5
2023-07-18T01:42:22.988Z,21.5
2023-07-18T01:43:23.188Z,21.5
2023-07-18T01:44:23.361Z,21.5
2023-07-18T01:45:23.630Z,21.5
2023-07-18T01:46:23.881Z,21.5
2023-07-18T01:47:24.228Z,21.5
2023-07-18T01:48:24.599Z,21.5
2023-07-18T01:49:24.891Z,21.5
2023-07-18T01:50:25.296Z,21.5
2023-07-18T01:51:25.457Z,21.5
2023-07-18T01:52:25.633Z,21.5
2023-07-18T01:53:25.824Z,21.5
2023-07-18T01:54:25.982Z,21.5
2023-07-18T01:55:26.172Z,21.5
2023-07-18T01:56:26.410Z,21.5
2023-07-18T01:57:26.584Z,21.5
2023-07-18T01:58:26.796Z,21.5
2023-07-18T01:59:26.958Z,21.5
2023-07-18T02:00:27.162Z,21.5
2023-07-18T02:01:27.477Z,21.5
2023-07-18T02:02:27.888Z,21.5
2023-07-18T02:03:28.352Z,21.5
2023-07-18T02:04:28.635Z,20.5
2023-07-18T02:05:28.796Z,20.5
2023-07-18T02:06:28.965Z,20.5
2023-07-18T02:07:29.140Z,20.5
2023-07-18T02:08:29.288Z,20.5
2023-07-18T02:09:29.452Z,20.5
2023-07-18T02:10:29.638Z,20.5
2023-07-18T02:11:29.815Z,20.5
2023-07-18T02:12:30.016Z,20.5
2023-07-18T02:13:30.184Z,20.5
2023-07-18T02:14:30.355Z,20.5
2023-07-18T02:15:30.530Z,20.5
2023-07-18T02:16:30.791Z,20.5
2023-07-18T02:17:31.090Z,20.5
2023-07-18T02:18:31.314Z,20.5
2023-07-18T02:19:31.506Z,20.5
2023-07-18T02:20:31.713Z,20.5
2023-07-18T02:21:31.960Z,20.5
2023-07-18T02:22:32.157Z,20.5
2023-07-18T02:23:32.422Z,20.5
2023-07-18T02:24:32.571Z,20.5
2023-07-18T02:25:32.718Z,20.5
2023-07-18T02:26:32.962Z,20.5
2023-07-18T02:27:33.134Z,20.5
2023-07-18T02:28:33.339Z,20.5
2023-07-18T02:29:33.584Z,20.5
2023-07-18T02:30:33.878Z,20.5
2023-07-18T02:31:34.259Z,20.5
2023-07-18T02:32:34.519Z,20.5
2023-07-18T02:33:34.725Z,20.5
2023-07-18T02:34:34.919Z,20.5
2023-07-18T02:35:35.112Z,20.5
2023-07-18T02:36:35.296Z,20.5
2023-07-18T02:37:35.497Z,20.5
2023-07-18T02:38:35.675Z,20.5
2023-07-18T02:39:35.851Z,20.5
2023-07-18T02:40:36.159Z,20.5
2023-07-18T02:41:36.340Z,20.5
2023-07-18T02:42:36.669Z,20.5
2023-07-18T02:43:36.878Z,20.5
2023-07-18T02:44:37.048Z,20.5
2023-07-18T02:45:37.232Z,20.5
2023-07-18T02:46:37.530Z,20.5
2023-07-18T02:47:37.853Z,20.5
2023-07-18T02:48:38.082Z,20.5
2023-07-18T02:49:38.303Z,20.5
2023-07-18T02:50:38.468Z,20.5
2023-07-18T02:51:38.638Z,20.5
2023-07-18T02:52:38.798Z,20.5
2023-07-18T02:53:38.980Z,20.5
2023-07-18T02:54:39.161Z,20.5
2023-07-18T02:55:39.364Z,20.5
2023-07-18T02:56:39.550Z,20.5
2023-07-18T02:57:39.901Z,20.5
2023-07-18T02:58:40.226Z,20.5
2023-07-18T02:59:40.424Z,20.5
2023-07-18T03:00:40.620Z,20.5
2023-07-18T03:01:40.842Z,20.5
2023-07-18T03:02:41.285Z,20.5
2023-07-18T03:03:41.644Z,20.5
2023-07-18T03:04:41.892Z,19.9
2023-07-18T03:05:42.052Z,19.9
2023-07-18T03:06:42.215Z,19.9
2023-07-18T03:07:42.399Z,19.9
2023-07-18T03:08:42.560Z,19.9
2023-07-18T03:09:42.742Z,19.9
2023-07-18T03:10:43.358Z,19.9
2023-07-18T03:11:43.795Z,19.9
2023-07-18T03:12:44.733Z,19.9
2023-07-18T03:13:44.921Z,19.9
2023-07-18T03:14:45.098Z,19.9
2023-07-18T03:15:45.581Z,19.9
2023-07-18T03:16:46.045Z,19.9
2023-07-18T03:17:46.539Z,19.9
2023-07-18T03:18:46.754Z,19.9
2023-07-18T03:19:46.918Z,19.9
2023-07-18T03:20:47.090Z,19.9
2023-07-18T03:21:47.261Z,19.9
2023-07-18T03:22:47.553Z,19.9
2023-07-18T03:23:47.879Z,19.9
2023-07-18T03:24:48.081Z,19.9
2023-07-18T03:25:48.291Z,19.9
2023-07-18T03:26:48.450Z,19.9
2023-07-18T03:27:48.628Z,19.9
2023-07-18T03:28:48.845Z,19.9
2023-07-18T03:29:49.002Z,19.9
2023-07-18T03:30:49.174Z,19.9
2023-07-18T03:31:49.468Z,19.9
2023-07-18T03:32:49.857Z,19.9
2023-07-18T03:33:50.369Z,19.9
2023-07-18T03:34:50.547Z,19.9
2023-07-18T03:35:50.743Z,19.9
2023-07-18T03:36:51.029Z,19.9
2023-07-18T03:37:51.211Z,19.9
2023-07-18T03:38:51.409Z,19.9
2023-07-18T03:39:51.594Z,19.9
2023-07-18T03:40:51.769Z,19.9
2023-07-18T03:41:51.935Z,19.9
2023-07-18T03:42:52.119Z,19.9
2023-07-18T03:43:52.290Z,19.9
2023-07-18T03:44:52.468Z,19.9
2023-07-18T03:45:52.739Z,19.9
2023-07-18T03:47:19.561Z,19.9
2023-07-18T03:48:22.121Z,19.6
2023-07-18T03:49:22.390Z,19.6
2023-07-18T03:50:22.553Z,19.6
2023-07-18T03:51:30.028Z,19.6
2023-07-18T03:52:38.072Z,19.6
2023-07-18T03:53:38.259Z,19.6
2023-07-18T03:54:38.774Z,19.6
2023-07-18T03:55:39.681Z,19.6
2023-07-18T03:56:39.847Z,19.6
2023-07-18T03:57:40.008Z,19.6
2023-07-18T03:58:40.190Z,19.6
2023-07-18T03:59:40.368Z,19.6
2023-07-18T04:00:40.538Z,19.6
2023-07-18T04:01:40.778Z,19.6
2023-07-18T04:02:43.885Z,19.6
2023-07-18T04:03:47.415Z,19.5
2023-07-18T04:04:47.707Z,19.5
2023-07-18T04:05:47.889Z,19.5
2023-07-18T04:06:48.055Z,19.5
2023-07-18T04:07:48.283Z,19.5
2023-07-18T04:08:48.487Z,19.5
2023-07-18T04:09:48.661Z,19.5
2023-07-18T04:10:48.854Z,19.5
2023-07-18T04:11:49.013Z,19.5
2023-07-18T04:12:49.203Z,19.5
2023-07-18T04:13:49.386Z,19.5
2023-07-18T04:14:49.574Z,19.5
2023-07-18T04:15:49.987Z,19.5
2023-07-18T04:16:50.314Z,19.5
2023-07-18T04:17:50.613Z,19.5
2023-07-18T04:18:50.877Z,19.5
2023-07-18T04:19:51.047Z,19.5
2023-07-18T04:20:51.277Z,19.5
2023-07-18T04:21:51.464Z,19.5
2023-07-18T04:22:51.693Z,19.5
2023-07-18T04:23:51.943Z,19.5
2023-07-18T04:24:52.114Z,19.5
2023-07-18T04:25:52.301Z,19.5
2023-07-18T04:26:52.466Z,19.5
2023-07-18T04:27:52.650Z,19.5
2023-07-18T04:28:52.853Z,19.5
2023-07-18T04:29:53.031Z,19.5
2023-07-18T04:30:53.206Z,19.5
2023-07-18T04:31:53.435Z,19.5
2023-07-18T04:32:53.829Z,19.5
2023-07-18T04:33:54.044Z,19.5
2023-07-18T04:34:54.213Z,19.5
2023-07-18T04:35:54.388Z,19.5
2023-07-18T04:36:54.594Z,19.5
2023-07-18T04:37:54.764Z,19.5
2023-07-18T04:38:54.921Z,19.5
2023-07-18T04:39:55.096Z,19.5
2023-07-18T04:40:55.283Z,19.5
2023-07-18T04:41:56.295Z,19.5
2023-07-18T04:42:56.516Z,19.5
2023-07-18T04:43:56.685Z,19.5
2023-07-18T04:44:56.856Z,19.5
2023-07-18T04:45:57.066Z,19.5
2023-07-18T04:46:57.431Z,19.5
2023-07-18T04:47:57.896Z,19.5
2023-07-18T04:48:58.112Z,19.5
2023-07-18T04:49:58.306Z,19.5
2023-07-18T04:50:58.489Z,19.5
2023-07-18T04:51:58.659Z,19.5
2023-07-18T04:52:58.834Z,19.5
2023-07-18T04:53:59.070Z,19.5
2023-07-18T04:54:59.243Z,19.5
2023-07-18T04:55:59.414Z,19.5
2023-07-18T04:56:59.580Z,19.5
2023-07-18T04:57:59.743Z,19.5
2023-07-18T04:58:59.921Z,19.5
2023-07-18T05:00:00.121Z,19.5
2023-07-18T05:01:00.410Z,19.5
2023-07-18T05:02:00.856Z,19.5
2023-07-18T05:03:01.325Z,19.5
2023-07-18T05:04:01.766Z,19
2023-07-18T05:05:02.081Z,19
2023-07-18T05:06:02.269Z,19
2023-07-18T05:07:02.453Z,19
2023-07-18T05:08:02.684Z,19
2023-07-18T05:09:02.865Z,19
2023-07-18T05:10:03.061Z,19
2023-07-18T05:11:03.249Z,19
2023-07-18T05:12:04.896Z,19
2023-07-18T05:13:05.570Z,19
2023-07-18T05:14:05.799Z,19
2023-07-18T05:15:05.996Z,19
2023-07-18T05:16:06.254Z,19
2023-07-18T05:17:06.545Z,19
2023-07-18T05:18:06.815Z,19
2023-07-18T05:19:07.057Z,19
2023-07-18T05:20:07.221Z,19
2023-07-18T05:21:07.412Z,19
2023-07-18T05:22:07.574Z,19
2023-07-18T05:23:07.873Z,19
2023-07-18T05:24:08.216Z,19
2023-07-18T05:25:08.497Z,19
2023-07-18T05:26:08.727Z,19
2023-07-18T05:27:08.920Z,19
2023-07-18T05:28:09.077Z,19
2023-07-18T05:29:09.277Z,19
2023-07-18T05:30:09.457Z,19
2023-07-18T05:31:09.761Z,19
2023-07-18T05:32:10.054Z,19
2023-07-18T05:33:10.265Z,19
2023-07-18T05:34:10.529Z,19
2023-07-18T05:35:10.710Z,19
2023-07-18T05:36:10.923Z,19
2023-07-18T05:37:11.090Z,19
2023-07-18T05:38:11.293Z,19
2023-07-18T05:39:11.464Z,19
2023-07-18T05:40:11.638Z,19
2023-07-18T05:41:11.808Z,19
2023-07-18T05:42:11.993Z,19
2023-07-18T05:43:12.184Z,19
2023-07-18T05:44:12.395Z,19
2023-07-18T05:45:12.615Z,19
2023-07-18T05:46:12.882Z,19
2023-07-18T05:47:13.164Z,19
2023-07-18T05:48:13.382Z,19
2023-07-18T05:49:13.608Z,19
2023-07-18T05:50:13.782Z,19
2023-07-18T05:51:13.949Z,19
2023-07-18T05:52:14.108Z,19
2023-07-18T05:53:14.286Z,19
2023-07-18T05:54:14.442Z,19
2023-07-18T05:55:14.700Z,19
2023-07-18T05:56:14.905Z,19
2023-07-18T05:57:15.135Z,19
2023-07-18T05:58:15.311Z,19
2023-07-18T05:59:15.484Z,19
2023-07-18T06:00:15.655Z,19
2023-07-18T06:01:16.056Z,19
2023-07-18T06:02:16.497Z,19
2023-07-18T06:03:16.913Z,19
2023-07-18T06:04:17.665Z,19.6
2023-07-18T06:05:17.971Z,19.6
2023-07-18T06:06:18.152Z,19.6
2023-07-18T06:07:18.342Z,19.6
2023-07-18T06:08:18.563Z,19.6
2023-07-18T06:09:18.737Z,19.6
2023-07-18T06:10:18.970Z,19.6
2023-07-18T06:11:19.600Z,19.6
2023-07-18T06:12:20.332Z,19.6
2023-07-18T06:13:20.540Z,19.6
2023-07-18T06:14:20.745Z,19.6
2023-07-18T06:15:20.972Z,19.6
2023-07-18T06:16:21.242Z,19.6
2023-07-18T06:17:21.551Z,19.6
2023-07-18T06:18:22.168Z,19.6
2023-07-18T06:19:22.370Z,19.6
2023-07-18T06:20:22.552Z,19.6
2023-07-18T06:21:22.933Z,19.6
2023-07-18T06:22:23.192Z,19.6
2023-07-18T06:23:23.371Z,19.6
2023-07-18T06:24:23.685Z,19.6
2023-07-18T06:25:23.959Z,19.6
2023-07-18T06:26:24.373Z,19.6
2023-07-18T06:27:24.645Z,19.6
2023-07-18T06:28:24.843Z,19.6
2023-07-18T06:29:24.996Z,19.6
2023-07-18T06:30:25.171Z,19.6
2023-07-18T06:31:25.442Z,19.6
2023-07-18T06:32:25.735Z,19.6
2023-07-18T06:33:25.972Z,19.6
2023-07-18T06:34:26.166Z,19.6
2023-07-18T06:35:26.329Z,19.6
2023-07-18T06:36:26.586Z,19.6
2023-07-18T06:37:26.845Z,19.6
2023-07-18T06:38:27.081Z,19.6
2023-07-18T06:39:27.283Z,19.6
2023-07-18T06:40:27.601Z,19.6
2023-07-18T06:41:27.921Z,19.6
2023-07-18T06:42:28.113Z,19.6
2023-07-18T06:43:28.259Z,19.6
2023-07-18T06:44:28.435Z,19.6
2023-07-18T06:45:28.697Z,19.6
2023-07-18T06:46:28.947Z,19.6
2023-07-18T06:47:29.270Z,19.6
2023-07-18T06:48:29.550Z,19.6
2023-07-18T06:49:29.726Z,19.6
2023-07-18T06:50:29.907Z,19.6
2023-07-18T06:51:30.072Z,19.6
2023-07-18T06:52:33.180Z,19.6
2023-07-18T06:53:37.129Z,20.4
2023-07-18T06:54:37.326Z,20.4
2023-07-18T06:55:37.532Z,20.4
2023-07-18T06:56:37.716Z,20.4
2023-07-18T06:57:37.896Z,20.4
2023-07-18T06:58:38.058Z,20.4
2023-07-18T06:59:38.241Z,20.4
2023-07-18T07:00:38.454Z,20.4
2023-07-18T07:01:38.809Z,20.4
2023-07-18T07:02:39.235Z,20.6
2023-07-18T07:03:39.721Z,20.6
2023-07-18T07:04:40.093Z,20.6
2023-07-18T07:05:40.271Z,20.6
2023-07-18T07:06:40.446Z,20.6
2023-07-18T07:07:40.622Z,20.6
2023-07-18T07:08:40.850Z,20.6
2023-07-18T07:09:41.082Z,20.6
2023-07-18T07:10:41.257Z,20.6
2023-07-18T07:11:41.411Z,20.6
2023-07-18T07:12:41.579Z,20.6
2023-07-18T07:13:41.918Z,20.6
2023-07-18T07:14:42.341Z,20.6
2023-07-18T07:15:42.505Z,20.6
2023-07-18T07:16:42.817Z,20.6
2023-07-18T07:17:43.269Z,20.6
2023-07-18T07:18:43.539Z,20.6
2023-07-18T07:19:43.719Z,20.6
2023-07-18T07:20:43.887Z,20.6
2023-07-18T07:21:44.039Z,20.6
2023-07-18T07:22:44.272Z,20.6
2023-07-18T07:23:44.518Z,20.6
2023-07-18T07:24:44.697Z,20.6
2023-07-18T07:25:44.890Z,20.6
2023-07-18T07:26:45.096Z,20.6
2023-07-18T07:27:45.600Z,20.6
2023-07-18T07:28:45.834Z,20.6
2023-07-18T07:29:46.026Z,20.6
2023-07-18T07:30:46.263Z,20.6
2023-07-18T07:31:46.498Z,20.6
2023-07-18T07:32:46.766Z,20.6
2023-07-18T07:33:47.198Z,20.6
2023-07-18T07:34:47.463Z,20.6
2023-07-18T07:35:47.937Z,20.6
2023-07-18T07:36:48.237Z,20.6
2023-07-18T07:37:48.434Z,20.6
2023-07-18T07:38:48.694Z,20.6
2023-07-18T07:39:48.871Z,21.6
2023-07-18T07:40:49.034Z,21.6
2023-07-18T07:41:49.197Z,21.6
2023-07-18T07:42:49.372Z,21.6
2023-07-18T07:43:49.608Z,21.6
2023-07-18T07:44:49.863Z,21.6
2023-07-18T07:45:50.137Z,21.6
2023-07-18T07:46:50.503Z,21.6
2023-07-18T07:47:50.811Z,21.6
2023-07-18T07:48:51.291Z,21.6
2023-07-18T07:49:51.509Z,21.6
2023-07-18T07:50:51.815Z,21.6
2023-07-18T07:51:51.994Z,21.6
2023-07-18T07:52:52.166Z,21.6
2023-07-18T07:53:52.379Z,21.6
2023-07-18T07:54:52.603Z,21.6
2023-07-18T07:55:52.765Z,21.6
2023-07-18T07:56:52.930Z,21.6
2023-07-18T07:57:53.089Z,21.6
2023-07-18T07:59:11.938Z,21.6
2023-07-18T08:00:12.610Z,22.3
2023-07-18T08:01:12.833Z,22.3
2023-07-18T08:02:13.113Z,22.3
2023-07-18T08:03:13.616Z,22.3
2023-07-18T08:04:13.955Z,22.3
2023-07-18T08:05:14.368Z,22.3
2023-07-18T08:06:14.598Z,22.3
2023-07-18T08:07:14.754Z,22.3
2023-07-18T08:08:14.939Z,22.6
2023-07-18T08:09:15.113Z,22.6
2023-07-18T08:10:15.289Z,22.6
2023-07-18T08:11:15.468Z,22.6
2023-07-18T08:12:15.631Z,22.6
2023-07-18T08:13:15.816Z,22.6
2023-07-18T08:14:15.980Z,22.6
2023-07-18T08:15:16.166Z,22.6
2023-07-18T08:16:16.418Z,22.6
2023-07-18T08:17:16.746Z,22.6
2023-07-18T08:18:16.966Z,22.6
2023-07-18T08:19:17.161Z,22.6
2023-07-18T08:20:17.327Z,22.6
2023-07-18T08:21:17.932Z,22.6
2023-07-18T08:22:18.525Z,22.6
2023-07-18T08:23:18.880Z,22.6
2023-07-18T08:24:19.179Z,22.6
2023-07-18T08:25:19.364Z,22.6
2023-07-18T08:26:19.578Z,22.6
2023-07-18T08:27:19.801Z,22.6
2023-07-18T08:28:19.977Z,22.6
2023-07-18T08:29:20.333Z,22.6
2023-07-18T08:30:20.626Z,22.6
2023-07-18T08:31:21.625Z,22.6
2023-07-18T08:32:22.751Z,22.6
2023-07-18T08:33:23.046Z,22.6
2023-07-18T08:34:23.229Z,22.6
2023-07-18T08:35:23.481Z,22.6
2023-07-18T08:36:23.668Z,23.6
2023-07-18T08:37:23.842Z,23.6
2023-07-18T08:38:24.027Z,23.6
2023-07-18T08:39:24.228Z,23.6
2023-07-18T08:40:24.431Z,23.6
2023-07-18T08:41:24.632Z,23.6
2023-07-18T08:42:24.828Z,23.6
2023-07-18T08:43:25.010Z,23.6
2023-07-18T08:44:25.192Z,23.6
2023-07-18T08:45:25.381Z,23.6
2023-07-18T08:46:25.684Z,23.6
2023-07-18T08:47:25.916Z,23.6
2023-07-18T08:48:26.244Z,23.6
2023-07-18T08:49:26.527Z,23.6
2023-07-18T08:50:26.737Z,23.6
2023-07-18T08:51:26.900Z,23.6
2023-07-18T08:52:27.140Z,23.6
2023-07-18T08:53:27.399Z,23.6
2023-07-18T08:54:27.642Z,23.6
2023-07-18T08:55:27.941Z,23.6
2023-07-18T08:56:28.244Z,23.6
2023-07-18T08:57:28.420Z,23.6
2023-07-18T08:58:28.611Z,23.6
2023-07-18T08:59:28.795Z,23.6
2023-07-18T09:00:28.975Z,23.6
2023-07-18T09:01:29.172Z,23.6
2023-07-18T09:02:29.462Z,24.6
2023-07-18T09:03:29.932Z,24.6
2023-07-18T09:04:30.184Z,24.6
2023-07-18T09:05:30.344Z,24.6
2023-07-18T09:06:30.516Z,24.6
2023-07-18T09:07:30.701Z,24.6
2023-07-18T09:08:30.872Z,24.6
2023-07-18T09:09:31.024Z,24.6
2023-07-18T09:10:31.176Z,24.6
2023-07-18T09:11:31.360Z,24.6
2023-07-18T09:12:31.548Z,24.6
2023-07-18T09:13:31.716Z,24.6
2023-07-18T09:14:31.911Z,24.6
2023-07-18T09:15:32.104Z,24.6
2023-07-18T09:16:32.365Z,24.6
2023-07-18T09:17:32.691Z,24.6
2023-07-18T09:18:32.911Z,24.6
2023-07-18T09:19:33.094Z,24.6
2023-07-18T09:20:33.290Z,24.6
2023-07-18T09:21:33.469Z,24.6
2023-07-18T09:22:33.761Z,25.6
2023-07-18T09:23:34.018Z,25.6
2023-07-18T09:24:34.185Z,25.6
2023-07-18T09:25:34.366Z,25.6
2023-07-18T09:26:34.530Z,25.6
2023-07-18T09:27:34.713Z,25.6
2023-07-18T09:28:34.889Z,25.6
2023-07-18T09:29:35.087Z,25.6
2023-07-18T09:30:35.274Z,25.6
2023-07-18T09:31:35.542Z,25.6
2023-07-18T09:32:35.887Z,25.6
2023-07-18T09:33:36.123Z,25.6
2023-07-18T09:34:36.306Z,25.6
2023-07-18T09:35:36.486Z,25.6
2023-07-18T09:36:37.208Z,25.6
2023-07-18T09:37:37.758Z,25.6
2023-07-18T09:38:37.935Z,25.6
2023-07-18T09:39:38.159Z,25.6
2023-07-18T09:40:39.909Z,25.6
2023-07-18T09:41:40.181Z,25.6
2023-07-18T09:42:47.531Z,25.6
2023-07-18T09:43:49.232Z,26.3
2023-07-18T09:44:52.908Z,26.3
2023-07-18T09:45:54.699Z,26.4
2023-07-18T09:46:54.975Z,26.4
2023-07-18T09:47:55.226Z,26.6
2023-07-18T09:48:55.453Z,26.6
2023-07-18T09:49:55.604Z,26.6
2023-07-18T09:50:55.756Z,26.6
2023-07-18T09:51:55.940Z,26.6
2023-07-18T09:52:56.099Z,26.6
2023-07-18T09:53:56.252Z,26.6
2023-07-18T09:54:56.406Z,26.6
2023-07-18T09:55:56.580Z,26.6
2023-07-18T09:56:56.731Z,26.6
2023-07-18T09:57:56.938Z,26.6
2023-07-18T09:58:57.099Z,27.6
2023-07-18T09:59:57.294Z,27.6
2023-07-18T10:00:57.503Z,27.6
2023-07-18T10:01:57.835Z,27.6
2023-07-18T10:02:58.355Z,27.6
2023-07-18T10:03:59.032Z,27.6
2023-07-18T10:04:59.273Z,27.6
2023-07-18T10:05:59.435Z,27.6
2023-07-18T10:06:59.607Z,27.6
2023-07-18T10:07:59.773Z,27.6
2023-07-18T10:08:59.934Z,27.6
2023-07-18T10:10:00.163Z,27.6
2023-07-18T10:11:00.359Z,27.6
2023-07-18T10:12:00.670Z,27.6
2023-07-18T10:13:00.916Z,27.6
2023-07-18T10:14:01.286Z,27.6
2023-07-18T10:15:01.638Z,27.6
2023-07-18T10:16:01.910Z,28.6
2023-07-18T10:17:02.432Z,28.6
2023-07-18T10:18:02.742Z,28.6
2023-07-18T10:19:02.958Z,28.6
2023-07-18T10:20:03.119Z,28.6
2023-07-18T10:21:03.320Z,28.6
2023-07-18T10:22:03.496Z,28.6
2023-07-18T10:23:03.703Z,28.6
2023-07-18T10:24:03.949Z,28.6
2023-07-18T10:25:04.129Z,28.6
2023-07-18T10:26:04.315Z,28.6
2023-07-18T10:27:04.491Z,28.6
2023-07-18T10:28:04.661Z,28.6
2023-07-18T10:29:04.825Z,28.6
2023-07-18T10:30:05.072Z,28.6
2023-07-18T10:31:05.666Z,28.6
2023-07-18T10:32:06.010Z,28.6
2023-07-18T10:33:06.311Z,28.6
2023-07-18T10:34:06.684Z,28.6
2023-07-18T10:35:06.853Z,28.6
2023-07-18T10:36:07.030Z,28.6
2023-07-18T10:37:07.285Z,28.6
2023-07-18T10:38:07.825Z,28.6
2023-07-18T10:39:08.052Z,28.6
2023-07-18T10:40:08.305Z,29.6
2023-07-18T10:41:08.482Z,29.6
2023-07-18T10:42:08.658Z,29.6
2023-07-18T10:43:08.865Z,29.6
2023-07-18T10:44:09.085Z,29.6
2023-07-18T10:45:09.318Z,29.6
2023-07-18T10:46:09.607Z,29.6
2023-07-18T10:47:09.885Z,29.6
2023-07-18T10:48:10.157Z,29.6
2023-07-18T10:49:10.387Z,29.6
2023-07-18T10:50:10.620Z,29.6
2023-07-18T10:51:10.819Z,29.6
2023-07-18T10:52:11.003Z,29.6
2023-07-18T10:53:11.280Z,29.6
2023-07-18T10:54:11.659Z,29.6
2023-07-18T10:55:11.866Z,29.6
2023-07-18T10:56:12.029Z,29.6
2023-07-18T10:57:12.303Z,29.6
2023-07-18T10:58:12.610Z,29.6
2023-07-18T10:59:12.796Z,29.6
2023-07-18T11:00:12.963Z,29.6
2023-07-18T11:01:13.167Z,29.6
2023-07-18T11:02:13.461Z,29.6
2023-07-18T11:03:13.794Z,29.6
2023-07-18T11:04:14.217Z,29.6
2023-07-18T11:05:14.543Z,29.6
2023-07-18T11:06:14.727Z,29.6
2023-07-18T11:07:14.888Z,29.6
2023-07-18T11:08:15.052Z,29.6
2023-07-18T11:09:15.325Z,29.6
2023-07-18T11:10:15.681Z,29.6
2023-07-18T11:11:15.992Z,29.6
2023-07-18T11:12:16.172Z,29.6
2023-07-18T11:13:16.342Z,28.6
2023-07-18T11:14:16.527Z,28.6
2023-07-18T11:15:16.750Z,28.6
2023-07-18T11:16:17.260Z,28.6
2023-07-18T11:17:17.553Z,28.6
2023-07-18T11:18:17.740Z,28.6
2023-07-18T11:19:17.924Z,28.6
2023-07-18T11:20:18.083Z,27.6
2023-07-18T11:21:18.337Z,27.6
2023-07-18T11:22:18.562Z,27.6
2023-07-18T11:23:18.721Z,27.6
2023-07-18T11:24:18.895Z,27.6
2023-07-18T11:25:19.073Z,27.6
2023-07-18T11:26:19.564Z,27.6
2023-07-18T11:27:19.925Z,26.6
2023-07-18T11:28:20.116Z,26.6
2023-07-18T11:29:20.294Z,26.6
2023-07-18T11:30:20.475Z,26.6
2023-07-18T11:31:41.351Z,26.6
2023-07-18T11:32:43.316Z,25.9
2023-07-18T11:33:43.540Z,25.9
2023-07-18T11:34:43.701Z,25.6
2023-07-18T11:35:43.874Z,25.6
2023-07-18T11:36:44.042Z,25.6
2023-07-18T11:37:44.243Z,25.6
2023-07-18T11:38:44.584Z,25.6
2023-07-18T11:39:44.752Z,25.6
2023-07-18T11:40:44.946Z,25.6
2023-07-18T11:41:45.110Z,25.6
2023-07-18T11:42:45.394Z,25.6
2023-07-18T11:43:45.616Z,24.6
2023-07-18T11:44:45.791Z,24.6
2023-07-18T11:45:45.968Z,24.6
2023-07-18T11:46:46.191Z,24.6
2023-07-18T11:47:46.583Z,24.6
2023-07-18T11:48:47.105Z,24.6
2023-07-18T11:49:47.449Z,24.6
2023-07-18T11:50:47.620Z,24.6
2023-07-18T11:51:47.785Z,24.6
2023-07-18T11:52:48.018Z,24.6
2023-07-18T11:53:48.261Z,24.6
2023-07-18T11:54:48.440Z,23.6
2023-07-18T11:55:48.628Z,23.6
2023-07-18T11:56:48.807Z,23.6
2023-07-18T11:57:48.974Z,23.6
2023-07-18T11:58:49.154Z,23.6
2023-07-18T11:59:49.308Z,23.6
2023-07-18T12:00:49.484Z,23.6
2023-07-18T12:01:49.823Z,23.6
2023-07-18T12:02:50.760Z,23.6
2023-07-18T12:03:51.370Z,23.6
2023-07-18T12:04:51.774Z,23.6
2023-07-18T12:05:51.943Z,23.6
2023-07-18T12:06:52.129Z,23.6
2023-07-18T12:07:52.297Z,23.6
2023-07-18T12:08:52.500Z,23.6
2023-07-18T12:09:52.731Z,23.6
2023-07-18T12:11:09.663Z,23.6
2023-07-18T12:12:10.174Z,22.6
2023-07-18T12:13:10.352Z,22.6
2023-07-18T12:14:10.526Z,22.6
2023-07-18T12:15:10.719Z,22.6
2023-07-18T12:16:10.944Z,22.6
2023-07-18T12:17:11.378Z,22.6
2023-07-18T12:18:11.588Z,22.6
2023-07-18T12:19:11.767Z,22.6
2023-07-18T12:20:12.049Z,22.6
2023-07-18T12:21:15.961Z,22.6
2023-07-18T12:22:16.266Z,22.6
2023-07-18T12:23:16.486Z,22.6
2023-07-18T12:24:16.715Z,22.6
2023-07-18T12:25:16.933Z,22.6
2023-07-18T12:26:17.094Z,22.6
2023-07-18T12:27:17.268Z,22.6
2023-07-18T12:28:17.438Z,22.6
2023-07-18T12:29:17.612Z,22.6
2023-07-18T12:30:17.803Z,22.6
2023-07-18T12:31:18.232Z,22.6
2023-07-18T12:32:22.816Z,22.6
2023-07-18T12:33:29.245Z,21.9
2023-07-18T12:34:29.653Z,21.9
2023-07-18T12:35:29.854Z,21.9
2023-07-18T12:36:30.024Z,21.9
2023-07-18T12:37:30.211Z,21.9
2023-07-18T12:38:30.456Z,21.9
2023-07-18T12:39:30.626Z,21.6
2023-07-18T12:40:30.905Z,21.6
2023-07-18T12:41:31.180Z,21.6
2023-07-18T12:42:31.355Z,21.6
2023-07-18T12:43:31.532Z,21.6
2023-07-18T12:44:32.205Z,21.6
2023-07-18T12:45:32.361Z,21.6
2023-07-18T12:46:32.645Z,21.6
2023-07-18T12:47:32.898Z,21.6
2023-07-18T12:48:33.130Z,21.6
2023-07-18T12:50:51.461Z,21.4
2023-07-18T12:51:51.615Z,21.4
2023-07-18T12:52:51.808Z,21.4
2023-07-18T12:53:51.978Z,21.4
2023-07-18T12:54:52.164Z,21.4
2023-07-18T12:55:52.339Z,21.4
2023-07-18T12:56:52.534Z,21.4
2023-07-18T12:57:52.732Z,21.4
2023-07-18T12:58:52.944Z,21.4
2023-07-18T12:59:53.116Z,21.4
2023-07-18T13:00:53.308Z,21.4
2023-07-18T13:01:53.574Z,21.4
2023-07-18T13:02:53.948Z,21.4
2023-07-18T13:03:54.575Z,21.4
2023-07-18T13:04:54.958Z,21.4
2023-07-18T13:05:55.141Z,21.4
2023-07-18T13:06:55.325Z,21.4
2023-07-18T13:07:55.523Z,21.4
2023-07-18T13:08:55.777Z,21.4
2023-07-18T13:09:55.941Z,21.4
2023-07-18T13:10:56.103Z,21.4
2023-07-18T13:11:56.393Z,21.4
2023-07-18T13:12:56.560Z,21.4
2023-07-18T13:13:56.727Z,21.4
2023-07-18T13:14:56.905Z,21.4
2023-07-18T13:15:57.124Z,21.4
2023-07-18T13:16:57.675Z,21.4
2023-07-18T13:17:58.208Z,21.4
2023-07-18T13:18:58.594Z,21.4
2023-07-18T13:19:58.758Z,21.4
2023-07-18T13:20:58.918Z,21.4
2023-07-18T13:21:59.080Z,21.4
2023-07-18T13:22:59.301Z,21.4
2023-07-18T13:23:59.533Z,21.4
2023-07-18T13:24:59.718Z,21.4
2023-07-18T13:25:59.872Z,21.4
2023-07-18T13:27:00.085Z,21.4
2023-07-18T13:28:00.262Z,21.4
2023-07-18T13:29:00.442Z,21.4
2023-07-18T13:30:00.621Z,21.4